Time;durP1;ratioP1;P1;durP2;ratioP2;P2;SDS_P1;SDS_P2;PMS_P1;PMS_P2;Temp;Humidity;BMP_temperature;BMP_pressure;BME280_temperature;BME280_humidity;BME280_pressure;Samples;Min_cycle;Max_cycle;Signal;HPM_P1;HPM_P2
2022/07/27 00:00:23;;;;;;;0.10;0.10;;;;;;;;;;5053914;28;20210;-64
2022/07/27 00:02:50;;;;;;;0.00;0.00;;;;;;;;;;5063658;28;20254;-63
2022/07/27 00:05:19;;;;;;;0.00;0.00;;;;;;;;;;5054219;28;20495;-64
2022/07/27 00:07:45;;;;;;;0.00;0.00;;;;;;;;;;5063218;28;20350;-64
2022/07/27 00:10:11;;;;;;;0.05;0.05;;;;;;;;;;5054094;28;20244;-64
2022/07/27 00:12:38;;;;;;;0.10;0.10;;;;;;;;;;5063118;28;20193;-63
2022/07/27 00:15:05;;;;;;;0.00;0.00;;;;;;;;;;5064109;28;20235;-64
2022/07/27 00:17:31;;;;;;;0.10;0.10;;;;;;;;;;5036158;28;20283;-63
2022/07/27 00:19:57;;;;;;;0.05;0.05;;;;;;;;;;5064217;28;20233;-63
2022/07/27 00:22:25;;;;;;;0.05;0.05;;;;;;;;;;5052716;28;20238;-63
2022/07/27 00:24:51;;;;;;;0.00;0.00;;;;;;;;;;5064152;28;20229;-63
2022/07/27 00:27:18;;;;;;;0.10;0.10;;;;;;;;;;5051922;28;20237;-62
2022/07/27 00:29:44;;;;;;;0.10;0.10;;;;;;;;;;5063864;28;20277;-63
2022/07/27 00:32:11;;;;;;;0.10;0.10;;;;;;;;;;5052592;28;20240;-63
2022/07/27 00:34:37;;;;;;;0.10;0.10;;;;;;;;;;5064120;28;20294;-63
2022/07/27 00:37:04;;;;;;;0.00;0.00;;;;;;;;;;5052202;28;20446;-63
2022/07/27 00:39:32;;;;;;;0.10;0.10;;;;;;;;;;5063758;28;20215;-64
2022/07/27 00:41:58;;;;;;;0.10;0.10;;;;;;;;;;5052474;28;20247;-64
2022/07/27 00:44:25;;;;;;;0.03;0.03;;;;;;;;;;5063790;28;20278;-64
2022/07/27 00:46:51;;;;;;;0.00;0.00;;;;;;;;;;5052442;28;20246;-64
2022/07/27 00:49:18;;;;;;;0.10;0.10;;;;;;;;;;5063342;28;20214;-66
2022/07/27 00:51:44;;;;;;;0.10;0.10;;;;;;;;;;5052267;28;20470;-63
2022/07/27 00:54:11;;;;;;;0.10;0.10;;;;;;;;;;5063135;28;20373;-64
2022/07/27 00:56:38;;;;;;;0.08;0.08;;;;;;;;;;5052330;28;20242;-63
2022/07/27 00:59:06;;;;;;;0.03;0.03;;;;;;;;;;5063179;28;20291;-64
2022/07/27 01:01:32;;;;;;;0.10;0.10;;;;;;;;;;5052294;28;20319;-64
2022/07/27 01:03:58;;;;;;;0.05;0.05;;;;;;;;;;5063169;28;20233;-63
2022/07/27 01:06:25;;;;;;;0.10;0.10;;;;;;;;;;5052356;28;20337;-64
2022/07/27 01:08:52;;;;;;;0.10;0.10;;;;;;;;;;5062820;28;20204;-63
2022/07/27 01:11:18;;;;;;;0.00;0.00;;;;;;;;;;5052270;28;20245;-64
2022/07/27 01:13:46;;;;;;;0.00;0.00;;;;;;;;;;5063152;28;20384;-64
2022/07/27 01:16:12;;;;;;;0.10;0.10;;;;;;;;;;5051950;28;20441;-63
2022/07/27 01:18:39;;;;;;;0.00;0.00;;;;;;;;;;5062430;28;20253;-62
2022/07/27 01:21:06;;;;;;;0.00;0.00;;;;;;;;;;5052045;28;20318;-63
2022/07/27 01:23:34;;;;;;;0.00;0.00;;;;;;;;;;5062458;28;20206;-63
2022/07/27 01:26:01;;;;;;;0.10;0.10;;;;;;;;;;5052228;28;20250;-63
2022/07/27 01:28:28;;;;;;;0.10;0.10;;;;;;;;;;5062479;28;20229;-63
2022/07/27 01:30:54;;;;;;;0.00;0.00;;;;;;;;;;5052222;28;20280;-62
2022/07/27 01:33:24;;;;;;;0.00;0.00;;;;;;;;;;5062454;28;20447;-63
2022/07/27 01:35:52;;;;;;;0.08;0.08;;;;;;;;;;5052044;28;20247;-63
2022/07/27 01:38:18;;;;;;;0.00;0.00;;;;;;;;;;5060995;28;20406;-63
2022/07/27 01:40:46;;;;;;;0.00;0.00;;;;;;;;;;5052140;28;20243;-63
2022/07/27 01:43:12;;;;;;;0.00;0.00;;;;;;;;;;5062145;28;20210;-62
2022/07/27 01:45:39;;;;;;;0.08;0.08;;;;;;;;;;5051888;28;20291;-64
2022/07/27 01:48:05;;;;;;;0.10;0.10;;;;;;;;;;5062200;28;20380;-64
2022/07/27 01:50:32;;;;;;;0.03;0.03;;;;;;;;;;5051905;28;20321;-63
2022/07/27 01:52:58;;;;;;;0.10;0.10;;;;;;;;;;5061372;28;20212;-66
2022/07/27 01:55:24;;;;;;;0.00;0.00;;;;;;;;;;5052304;28;20289;-63
2022/07/27 01:57:52;;;;;;;0.00;0.00;;;;;;;;;;5061512;28;20194;-64
2022/07/27 02:00:18;;;;;;;0.00;0.00;;;;;;;;;;5052010;28;20223;-63
2022/07/27 02:02:45;;;;;;;0.10;0.10;;;;;;;;;;5061373;28;20202;-64
2022/07/27 02:05:11;;;;;;;0.10;0.10;;;;;;;;;;5051760;28;20229;-62
2022/07/27 02:07:38;;;;;;;0.10;0.10;;;;;;;;;;5061414;28;20364;-63
2022/07/27 02:10:05;;;;;;;0.10;0.10;;;;;;;;;;5058796;28;20370;-64
2022/07/27 02:12:36;;;;;;;0.10;0.10;;;;;;;;;;5061172;28;20237;-64
2022/07/27 02:15:05;;;;;;;0.00;0.00;;;;;;;;;;5062320;28;20237;-64
2022/07/27 02:17:31;;;;;;;0.05;0.05;;;;;;;;;;5034151;28;20260;-64
2022/07/27 02:19:58;;;;;;;0.05;0.05;;;;;;;;;;5062247;28;20230;-63
2022/07/27 02:22:24;;;;;;;0.00;0.00;;;;;;;;;;5050789;28;20506;-63
2022/07/27 02:24:50;;;;;;;0.08;0.08;;;;;;;;;;5062302;28;20205;-63
2022/07/27 02:27:17;;;;;;;0.03;0.03;;;;;;;;;;5050387;28;20286;-64
2022/07/27 02:29:43;;;;;;;0.00;0.00;;;;;;;;;;5062239;28;20279;-63
2022/07/27 02:32:11;;;;;;;0.00;0.00;;;;;;;;;;5050826;28;20242;-63
2022/07/27 02:34:37;;;;;;;0.10;0.10;;;;;;;;;;5061930;28;20204;-63
2022/07/27 02:37:04;;;;;;;0.10;0.10;;;;;;;;;;5050504;28;20245;-63
2022/07/27 02:39:30;;;;;;;0.10;0.10;;;;;;;;;;5061919;28;20247;-64
2022/07/27 02:41:56;;;;;;;0.03;0.03;;;;;;;;;;5050566;28;20315;-63
2022/07/27 02:44:23;;;;;;;0.00;0.00;;;;;;;;;;5061990;28;20203;-63
2022/07/27 02:46:49;;;;;;;0.05;0.05;;;;;;;;;;5050869;28;20447;-63
2022/07/27 02:49:17;;;;;;;0.05;0.05;;;;;;;;;;5062915;28;20275;-63
2022/07/27 02:51:43;;;;;;;0.10;0.10;;;;;;;;;;5054640;28;20245;-63
2022/07/27 02:54:09;;;;;;;0.08;0.08;;;;;;;;;;5065939;28;20279;-63
2022/07/27 02:56:36;;;;;;;0.03;0.03;;;;;;;;;;5054364;28;20506;-63
2022/07/27 02:59:02;;;;;;;0.05;0.05;;;;;;;;;;5065282;28;20208;-63
2022/07/27 03:01:28;;;;;;;0.00;0.00;;;;;;;;;;5054475;28;20370;-64
2022/07/27 03:03:55;;;;;;;0.10;0.10;;;;;;;;;;5065224;28;20238;-64
2022/07/27 03:06:23;;;;;;;0.00;0.00;;;;;;;;;;5054595;28;20246;-63
2022/07/27 03:08:50;;;;;;;0.10;0.10;;;;;;;;;;5064941;28;20206;-63
2022/07/27 03:11:16;;;;;;;0.10;0.10;;;;;;;;;;5054269;28;20241;-63
2022/07/27 03:13:42;;;;;;;0.08;0.08;;;;;;;;;;5065091;28;20220;-64
2022/07/27 03:16:09;;;;;;;0.03;0.03;;;;;;;;;;5054581;28;20241;-63
2022/07/27 03:18:35;;;;;;;0.03;0.03;;;;;;;;;;5064941;28;20251;-64
2022/07/27 03:21:02;;;;;;;0.00;0.00;;;;;;;;;;5054278;28;20249;-63
2022/07/27 03:23:30;;;;;;;0.10;0.10;;;;;;;;;;5064571;28;20204;-63
2022/07/27 03:25:56;;;;;;;0.08;0.08;;;;;;;;;;5054510;28;20374;-64
2022/07/27 03:28:22;;;;;;;0.10;0.10;;;;;;;;;;5064724;28;20233;-63
2022/07/27 03:30:49;;;;;;;0.00;0.00;;;;;;;;;;5054484;28;20438;-64
2022/07/27 03:33:15;;;;;;;0.10;0.10;;;;;;;;;;5064722;28;20208;-63
2022/07/27 03:35:42;;;;;;;0.10;0.10;;;;;;;;;;5054402;28;20506;-63
2022/07/27 03:38:08;;;;;;;0.10;0.10;;;;;;;;;;5063838;28;20377;-64
2022/07/27 03:40:36;;;;;;;0.03;0.03;;;;;;;;;;5054257;28;20254;-63
2022/07/27 03:43:02;;;;;;;0.00;0.00;;;;;;;;;;5063978;28;20198;-62
2022/07/27 03:45:28;;;;;;;0.08;0.08;;;;;;;;;;5054504;28;20257;-63
2022/07/27 03:47:56;;;;;;;0.10;0.10;;;;;;;;;;5063830;28;20211;-64
2022/07/27 03:50:22;;;;;;;0.10;0.10;;;;;;;;;;5054188;28;20208;-63
2022/07/27 03:52:48;;;;;;;0.10;0.10;;;;;;;;;;5063860;28;20204;-63
2022/07/27 03:55:15;;;;;;;0.10;0.10;;;;;;;;;;5054176;28;20237;-63
2022/07/27 03:57:42;;;;;;;0.03;0.03;;;;;;;;;;5063178;28;20200;-63
2022/07/27 04:00:11;;;;;;;0.03;0.03;;;;;;;;;;5053482;28;20205;-64
2022/07/27 04:02:37;;;;;;;0.10;0.10;;;;;;;;;;5062095;28;20202;-63
2022/07/27 04:05:04;;;;;;;0.10;0.10;;;;;;;;;;5063695;28;20399;-63
2022/07/27 04:07:30;;;;;;;0.10;0.10;;;;;;;;;;5052910;28;20242;-64
2022/07/27 04:09:57;;;;;;;0.10;0.10;;;;;;;;;;5064244;28;20261;-62
2022/07/27 04:12:23;;;;;;;0.10;0.10;;;;;;;;;;5052891;28;20241;-63
2022/07/27 04:14:51;;;;;;;0.10;0.10;;;;;;;;;;5064223;28;20419;-63
2022/07/27 04:17:17;;;;;;;0.10;0.10;;;;;;;;;;5052514;28;20283;-63
2022/07/27 04:19:43;;;;;;;0.10;0.10;;;;;;;;;;5064006;28;20301;-63
2022/07/27 04:22:10;;;;;;;0.10;0.10;;;;;;;;;;5052523;28;20316;-64
2022/07/27 04:24:36;;;;;;;0.10;0.10;;;;;;;;;;5064296;28;20289;-64
2022/07/27 04:27:02;;;;;;;0.10;0.10;;;;;;;;;;5052692;28;20243;-63
2022/07/27 04:29:29;;;;;;;0.03;0.03;;;;;;;;;;5064254;28;20277;-64
2022/07/27 04:31:56;;;;;;;0.10;0.10;;;;;;;;;;5052639;28;20278;-63
2022/07/27 04:34:23;;;;;;;0.10;0.10;;;;;;;;;;5063580;28;20246;-63
2022/07/27 04:36:50;;;;;;;0.10;0.10;;;;;;;;;;5052446;28;20448;-63
2022/07/27 04:39:16;;;;;;;0.10;0.10;;;;;;;;;;5063360;28;20220;-63
2022/07/27 04:41:43;;;;;;;0.10;0.10;;;;;;;;;;5052522;28;20250;-64
2022/07/27 04:44:09;;;;;;;0.10;0.10;;;;;;;;;;5063488;28;20204;-63
2022/07/27 04:46:35;;;;;;;0.10;0.10;;;;;;;;;;5052365;28;20307;-64
2022/07/27 04:49:03;;;;;;;0.10;0.10;;;;;;;;;;5063426;28;20204;-64
2022/07/27 04:51:29;;;;;;;0.10;0.10;;;;;;;;;;5052521;28;20241;-64
2022/07/27 04:53:56;;;;;;;0.10;0.10;;;;;;;;;;5063323;28;20275;-64
2022/07/27 04:56:22;;;;;;;0.10;0.10;;;;;;;;;;5052467;28;20451;-63
2022/07/27 04:58:48;;;;;;;0.10;0.10;;;;;;;;;;5062903;28;20272;-63
2022/07/27 05:01:15;;;;;;;0.10;0.10;;;;;;;;;;5052166;28;20243;-64
2022/07/27 05:03:42;;;;;;;0.05;0.05;;;;;;;;;;5062674;28;20213;-64
2022/07/27 05:06:10;;;;;;;0.10;0.10;;;;;;;;;;5052456;28;20263;-63
2022/07/27 05:08:36;;;;;;;0.10;0.10;;;;;;;;;;5062959;28;20204;-64
2022/07/27 05:11:02;;;;;;;0.10;0.10;;;;;;;;;;5052329;28;20303;-63
2022/07/27 05:13:29;;;;;;;0.10;0.10;;;;;;;;;;5062382;28;20263;-63
2022/07/27 05:15:55;;;;;;;0.05;0.05;;;;;;;;;;5052271;28;20496;-65
2022/07/27 05:18:21;;;;;;;0.08;0.08;;;;;;;;;;5062576;28;20333;-65
2022/07/27 05:20:48;;;;;;;0.10;0.10;;;;;;;;;;5052311;28;20260;-64
2022/07/27 05:23:16;;;;;;;0.10;0.10;;;;;;;;;;5062584;28;20267;-65
2022/07/27 05:25:42;;;;;;;0.10;0.10;;;;;;;;;;5052358;28;20331;-63
2022/07/27 05:28:10;;;;;;;0.10;0.10;;;;;;;;;;5062371;28;20275;-63
2022/07/27 05:30:37;;;;;;;0.10;0.10;;;;;;;;;;5052267;28;20266;-63
2022/07/27 05:33:03;;;;;;;0.03;0.03;;;;;;;;;;5062222;28;20204;-65
2022/07/27 05:35:29;;;;;;;0.10;0.10;;;;;;;;;;5052395;28;20238;-64
2022/07/27 05:37:56;;;;;;;0.03;0.03;;;;;;;;;;5061710;28;20228;-66
2022/07/27 05:40:23;;;;;;;0.10;0.10;;;;;;;;;;5052181;28;20208;-64
2022/07/27 05:42:50;;;;;;;0.05;0.05;;;;;;;;;;5061534;28;20203;-63
2022/07/27 05:45:16;;;;;;;0.10;0.10;;;;;;;;;;5052253;28;20240;-64
2022/07/27 05:47:42;;;;;;;0.10;0.10;;;;;;;;;;5061600;28;20360;-64
2022/07/27 05:50:09;;;;;;;0.10;0.10;;;;;;;;;;5052174;28;20274;-63
2022/07/27 05:52:37;;;;;;;0.10;0.10;;;;;;;;;;5061300;28;20204;-63
2022/07/27 05:55:03;;;;;;;0.05;0.05;;;;;;;;;;5062754;28;20409;-65
2022/07/27 05:57:31;;;;;;;0.08;0.08;;;;;;;;;;5051156;28;20250;-64
2022/07/27 05:59:59;;;;;;;0.10;0.10;;;;;;;;;;5062656;28;20211;-64
2022/07/27 06:02:26;;;;;;;0.10;0.10;;;;;;;;;;5051021;28;20249;-65
2022/07/27 06:04:53;;;;;;;0.10;0.10;;;;;;;;;;5062496;28;20272;-64
2022/07/27 06:10:03;;;;;;;0.10;0.10;;;;;;;;;;5062318;28;20198;-63
2022/07/27 06:12:36;;;;;;;0.10;0.10;;;;;;;;;;5034071;28;20211;-65
2022/07/27 06:15:04;;;;;;;0.10;0.10;;;;;;;;;;5062430;28;20399;-63
2022/07/27 06:17:31;;;;;;;0.08;0.08;;;;;;;;;;5034369;28;20216;-64
2022/07/27 06:19:57;;;;;;;0.10;0.10;;;;;;;;;;5061977;28;20304;-64
2022/07/27 06:22:23;;;;;;;0.10;0.10;;;;;;;;;;5050666;28;20320;-63
2022/07/27 06:24:50;;;;;;;0.10;0.10;;;;;;;;;;5063876;28;20390;-62
2022/07/27 06:27:16;;;;;;;0.10;0.10;;;;;;;;;;5054805;28;20299;-63
2022/07/27 06:29:44;;;;;;;0.10;0.10;;;;;;;;;;5066002;28;20283;-63
2022/07/27 06:32:10;;;;;;;0.10;0.10;;;;;;;;;;5054653;28;20479;-65
2022/07/27 06:34:36;;;;;;;0.10;0.10;;;;;;;;;;5066012;28;20235;-63
2022/07/27 06:37:03;;;;;;;0.10;0.10;;;;;;;;;;5054530;28;20231;-64
2022/07/27 06:39:29;;;;;;;0.10;0.10;;;;;;;;;;5065792;28;20213;-64
2022/07/27 06:41:56;;;;;;;0.00;0.00;;;;;;;;;;5054725;28;20457;-62
2022/07/27 06:44:22;;;;;;;0.08;0.08;;;;;;;;;;5065834;28;20216;-65
2022/07/27 06:46:50;;;;;;;0.10;0.10;;;;;;;;;;5054615;28;20310;-62
2022/07/27 06:49:16;;;;;;;0.10;0.10;;;;;;;;;;5065487;28;20204;-63
2022/07/27 06:51:42;;;;;;;0.10;0.10;;;;;;;;;;5054483;28;20421;-64
2022/07/27 06:54:10;;;;;;;0.10;0.10;;;;;;;;;;5065658;28;20421;-64
2022/07/27 06:56:37;;;;;;;0.10;0.10;;;;;;;;;;5054419;28;20439;-63
2022/07/27 06:59:03;;;;;;;0.10;0.10;;;;;;;;;;5065567;28;20205;-64
2022/07/27 07:01:29;;;;;;;0.05;0.05;;;;;;;;;;5054342;28;20247;-63
2022/07/27 07:03:58;;;;;;;0.10;0.10;;;;;;;;;;5065250;28;20430;-64
2022/07/27 07:06:25;;;;;;;0.03;0.03;;;;;;;;;;5054410;28;20482;-63
2022/07/27 07:08:51;;;;;;;0.10;0.10;;;;;;;;;;5064788;28;20205;-63
2022/07/27 07:11:18;;;;;;;0.10;0.10;;;;;;;;;;5054508;28;20568;-64
2022/07/27 07:13:44;;;;;;;0.10;0.10;;;;;;;;;;5064600;28;20200;-63
2022/07/27 07:16:10;;;;;;;0.10;0.10;;;;;;;;;;5054057;28;20252;-63
2022/07/27 07:18:40;;;;;;;0.10;0.10;;;;;;;;;;5064119;28;20352;-64
2022/07/27 07:21:08;;;;;;;0.10;0.10;;;;;;;;;;5054331;28;20546;-64
2022/07/27 07:23:34;;;;;;;0.10;0.10;;;;;;;;;;5064691;28;20268;-63
2022/07/27 07:26:00;;;;;;;0.00;0.00;;;;;;;;;;5054396;28;20311;-65
2022/07/27 07:28:27;;;;;;;0.10;0.10;;;;;;;;;;5064364;28;20364;-63
2022/07/27 07:30:53;;;;;;;0.10;0.10;;;;;;;;;;5054485;28;20299;-65
2022/07/27 07:33:19;;;;;;;0.05;0.05;;;;;;;;;;5064433;28;20231;-63
2022/07/27 07:35:46;;;;;;;0.05;0.05;;;;;;;;;;5054082;28;20265;-62
2022/07/27 07:38:14;;;;;;;0.10;0.10;;;;;;;;;;5064108;28;20297;-64
2022/07/27 07:40:40;;;;;;;0.08;0.08;;;;;;;;;;5054248;28;20244;-64
2022/07/27 07:43:08;;;;;;;0.00;0.00;;;;;;;;;;5063861;28;20343;-64
2022/07/27 07:45:36;;;;;;;0.05;0.05;;;;;;;;;;5054255;28;20257;-64
2022/07/27 07:48:03;;;;;;;0.10;0.10;;;;;;;;;;5063985;28;20463;-64
2022/07/27 07:50:30;;;;;;;0.10;0.10;;;;;;;;;;5054155;28;20246;-64
2022/07/27 07:52:56;;;;;;;0.00;0.00;;;;;;;;;;5063540;28;20266;-63
2022/07/27 07:55:26;;;;;;;0.10;0.10;;;;;;;;;;5053894;28;20206;-61
2022/07/27 07:57:52;;;;;;;0.10;0.10;;;;;;;;;;5063974;28;20241;-63
2022/07/27 08:00:19;;;;;;;0.10;0.10;;;;;;;;;;5054226;28;20208;-63
2022/07/27 08:02:45;;;;;;;0.10;0.10;;;;;;;;;;5063594;28;20200;-62
2022/07/27 08:05:12;;;;;;;0.10;0.10;;;;;;;;;;5054022;28;20239;-64
2022/07/27 08:07:39;;;;;;;0.10;0.10;;;;;;;;;;5063309;28;20478;-64
2022/07/27 08:10:07;;;;;;;0.10;0.10;;;;;;;;;;5054460;28;20204;-62
2022/07/27 08:12:35;;;;;;;0.10;0.10;;;;;;;;;;5063185;28;20217;-62
2022/07/27 08:15:02;;;;;;;0.10;0.10;;;;;;;;;;5064454;28;20240;-64
2022/07/27 08:17:31;;;;;;;0.10;0.10;;;;;;;;;;5052743;28;20242;-63
2022/07/27 08:19:58;;;;;;;0.10;0.10;;;;;;;;;;5064080;28;20292;-62
2022/07/27 08:22:24;;;;;;;0.00;0.00;;;;;;;;;;5052862;28;20249;-64
2022/07/27 08:24:51;;;;;;;0.10;0.10;;;;;;;;;;5064075;28;20207;-64
2022/07/27 08:27:17;;;;;;;0.10;0.10;;;;;;;;;;5052503;28;20243;-72
2022/07/27 08:29:45;;;;;;;0.10;0.10;;;;;;;;;;5063964;28;20243;-72
2022/07/27 08:32:11;;;;;;;0.05;0.05;;;;;;;;;;5052134;28;20413;-73
2022/07/27 08:34:38;;;;;;;0.10;0.10;;;;;;;;;;5063638;28;20227;-73
2022/07/27 08:37:04;;;;;;;0.10;0.10;;;;;;;;;;5051889;28;20440;-73
2022/07/27 08:39:31;;;;;;;0.03;0.03;;;;;;;;;;5063279;28;20245;-78
2022/07/27 08:42:03;;;;;;;0.00;0.00;;;;;;;;;;5052066;28;20320;-77
2022/07/27 08:44:29;;;;;;;0.10;0.10;;;;;;;;;;5063908;28;20528;-79
2022/07/27 08:46:57;;;;;;;0.00;0.00;;;;;;;;;;5051654;28;20451;-80
2022/07/27 08:49:24;;;;;;;0.00;0.00;;;;;;;;;;5063305;28;20502;-78
2022/07/27 08:51:50;;;;;;;0.10;0.10;;;;;;;;;;5051538;28;20528;-76
2022/07/27 08:54:17;;;;;;;0.00;0.00;;;;;;;;;;5063248;28;20245;-75
2022/07/27 08:56:43;;;;;;;0.05;0.05;;;;;;;;;;5052032;28;20315;-76
2022/07/27 08:59:10;;;;;;;0.00;0.00;;;;;;;;;;5062711;28;20210;-76
2022/07/27 09:01:36;;;;;;;0.10;0.10;;;;;;;;;;5051942;28;20253;-73
2022/07/27 09:04:04;;;;;;;0.10;0.10;;;;;;;;;;5062531;28;20205;-72
2022/07/27 09:06:44;;;;;;;0.00;0.00;;;;;;;;;;5052452;28;20273;-73
2022/07/27 09:09:11;;;;;;;0.00;0.00;;;;;;;;;;5062990;28;20223;-74
2022/07/27 09:11:38;;;;;;;0.08;0.08;;;;;;;;;;5051848;28;20312;-74
2022/07/27 09:14:06;;;;;;;0.00;0.00;;;;;;;;;;5062726;28;20199;-77
2022/07/27 09:16:33;;;;;;;0.10;0.10;;;;;;;;;;5051909;28;20241;-74
2022/07/27 09:19:00;;;;;;;0.10;0.10;;;;;;;;;;5062345;28;20267;-74
2022/07/27 09:21:28;;;;;;;0.10;0.10;;;;;;;;;;5051556;28;20243;-66
2022/07/27 09:23:56;;;;;;;0.10;0.10;;;;;;;;;;5062531;28;20208;-67
2022/07/27 09:26:23;;;;;;;1.95;1.95;;;;;;;;;;5051627;28;20247;-65
2022/07/27 09:28:52;;;;;;;0.08;0.08;;;;;;;;;;5062153;28;20241;-65
2022/07/27 09:31:19;;;;;;;0.05;0.05;;;;;;;;;;5051401;28;20275;-64
2022/07/27 09:33:46;;;;;;;0.10;0.10;;;;;;;;;;5062079;28;20206;-66
2022/07/27 09:36:12;;;;;;;0.00;0.00;;;;;;;;;;5051634;28;20446;-68
2022/07/27 09:38:49;;;;;;;0.00;0.00;;;;;;;;;;5061560;28;20297;-66
2022/07/27 09:41:15;;;;;;;0.00;0.00;;;;;;;;;;5051806;28;20349;-68
2022/07/27 09:43:44;;;;;;;0.00;0.00;;;;;;;;;;5061936;28;20272;-68
2022/07/27 09:46:11;;;;;;;0.00;0.00;;;;;;;;;;5052044;28;20241;-66
2022/07/27 09:48:37;;;;;;;0.00;0.00;;;;;;;;;;5061643;28;20203;-66
2022/07/27 09:51:04;;;;;;;0.10;0.10;;;;;;;;;;5051647;28;20350;-66
2022/07/27 09:53:32;;;;;;;0.00;0.00;;;;;;;;;;5061597;28;20411;-66
2022/07/27 09:56:02;;;;;;;0.08;0.08;;;;;;;;;;5051204;28;20244;-65
2022/07/27 09:58:39;;;;;;;0.00;0.00;;;;;;;;;;5060824;28;20291;-66
2022/07/27 10:01:06;;;;;;;0.00;0.00;;;;;;;;;;5051349;28;20306;-66
2022/07/27 10:03:32;;;;;;;0.05;0.05;;;;;;;;;;5061446;28;20207;-65
2022/07/27 10:05:59;;;;;;;0.00;0.00;;;;;;;;;;5051587;28;20443;-67
2022/07/27 10:08:25;;;;;;;0.10;0.10;;;;;;;;;;5061387;28;20239;-62
2022/07/27 10:10:51;;;;;;;0.10;0.10;;;;;;;;;;5051267;28;20243;-65
2022/07/27 10:13:19;;;;;;;0.00;0.00;;;;;;;;;;5061252;28;20269;-65
2022/07/27 10:15:46;;;;;;;0.10;0.10;;;;;;;;;;5051430;28;20242;-65
2022/07/27 10:18:14;;;;;;;0.08;0.08;;;;;;;;;;5061174;28;20235;-64
2022/07/27 10:20:42;;;;;;;0.00;0.00;;;;;;;;;;5051464;28;20261;-64
2022/07/27 10:23:08;;;;;;;0.00;0.00;;;;;;;;;;5060989;28;20274;-64
2022/07/27 10:25:35;;;;;;;0.10;0.10;;;;;;;;;;5051404;28;20262;-65
2022/07/27 10:28:08;;;;;;;0.10;0.10;;;;;;;;;;5060731;28;20214;-65
2022/07/27 10:30:36;;;;;;;0.10;0.10;;;;;;;;;;5051481;28;20248;-65
2022/07/27 10:33:11;;;;;;;0.10;0.10;;;;;;;;;;5060641;28;20369;-65
2022/07/27 10:35:37;;;;;;;0.10;0.10;;;;;;;;;;5051571;28;20578;-62
2022/07/27 10:38:08;;;;;;;0.00;0.00;;;;;;;;;;5060618;28;20261;-61
2022/07/27 10:40:35;;;;;;;0.10;0.10;;;;;;;;;;5051553;28;20325;-61
2022/07/27 10:43:06;;;;;;;0.00;0.00;;;;;;;;;;5060570;28;20506;-63
2022/07/27 10:45:40;;;;;;;0.10;0.10;;;;;;;;;;5051174;28;20241;-63
2022/07/27 10:48:06;;;;;;;0.00;0.00;;;;;;;;;;5060505;28;20214;-64
2022/07/27 10:50:33;;;;;;;0.00;0.00;;;;;;;;;;5051188;28;20266;-62
2022/07/27 10:53:01;;;;;;;0.08;0.08;;;;;;;;;;5060930;28;20206;-63
2022/07/27 10:55:46;;;;;;;0.10;0.10;;;;;;;;;;5051056;28;20509;-62
2022/07/27 10:58:31;;;;;;;0.00;0.00;;;;;;;;;;5060823;28;20299;-62
2022/07/27 11:00:59;;;;;;;0.05;0.05;;;;;;;;;;5050607;28;20303;-60
2022/07/27 11:03:26;;;;;;;0.10;0.10;;;;;;;;;;5060782;28;20428;-63
2022/07/27 11:05:54;;;;;;;0.00;0.00;;;;;;;;;;5051072;28;20477;-63
2022/07/27 11:08:24;;;;;;;0.05;0.05;;;;;;;;;;5060479;28;20268;-63
2022/07/27 11:10:51;;;;;;;0.00;0.00;;;;;;;;;;5052384;28;20248;-63
2022/07/27 11:13:18;;;;;;;0.10;0.10;;;;;;;;;;5064817;28;20227;-64
2022/07/27 11:15:50;;;;;;;0.03;0.03;;;;;;;;;;5054818;28;20241;-63
2022/07/27 11:18:17;;;;;;;0.10;0.10;;;;;;;;;;5064537;28;20229;-63
2022/07/27 11:20:44;;;;;;;0.00;0.00;;;;;;;;;;5054629;28;20240;-64
2022/07/27 11:23:17;;;;;;;0.00;0.00;;;;;;;;;;5064513;28;20345;-63
2022/07/27 11:25:56;;;;;;;0.00;0.00;;;;;;;;;;5054083;28;20446;-64
2022/07/27 11:28:27;;;;;;;0.00;0.00;;;;;;;;;;5064306;28;20266;-64
2022/07/27 11:30:54;;;;;;;0.00;0.00;;;;;;;;;;5054713;28;20484;-64
2022/07/27 11:33:21;;;;;;;0.10;0.10;;;;;;;;;;5064452;28;20229;-64
2022/07/27 11:35:52;;;;;;;0.00;0.00;;;;;;;;;;5054577;28;20259;-64
2022/07/27 11:38:18;;;;;;;0.10;0.10;;;;;;;;;;5063684;28;20309;-63
2022/07/27 11:40:45;;;;;;;0.10;0.10;;;;;;;;;;5054509;28;20243;-65
2022/07/27 11:43:12;;;;;;;0.10;0.10;;;;;;;;;;5063994;28;20273;-65
2022/07/27 11:45:40;;;;;;;0.10;0.10;;;;;;;;;;5054386;28;20322;-65
2022/07/27 11:48:08;;;;;;;0.00;0.00;;;;;;;;;;5063853;28;20189;-63
2022/07/27 11:50:36;;;;;;;0.10;0.10;;;;;;;;;;5054160;28;20409;-63
2022/07/27 11:53:02;;;;;;;0.03;0.03;;;;;;;;;;5064056;28;20193;-63
2022/07/27 11:55:29;;;;;;;0.10;0.10;;;;;;;;;;5054274;28;20320;-63
2022/07/27 11:58:02;;;;;;;0.00;0.00;;;;;;;;;;5063588;28;20230;-63
2022/07/27 12:00:39;;;;;;;0.00;0.00;;;;;;;;;;5054210;28;20463;-64
2022/07/27 12:03:05;;;;;;;0.08;0.08;;;;;;;;;;5063440;28;20226;-64
2022/07/27 12:05:32;;;;;;;0.00;0.00;;;;;;;;;;5054012;28;20303;-63
2022/07/27 12:08:00;;;;;;;0.00;0.00;;;;;;;;;;5063853;28;20326;-67
2022/07/27 12:10:26;;;;;;;0.10;0.10;;;;;;;;;;5053833;28;20569;-64
2022/07/27 12:12:53;;;;;;;0.00;0.00;;;;;;;;;;5063534;28;20206;-65
2022/07/27 12:15:19;;;;;;;0.10;0.10;;;;;;;;;;5053773;28;20229;-64
2022/07/27 12:17:55;;;;;;;0.00;0.00;;;;;;;;;;5063145;28;20367;-64
2022/07/27 12:20:23;;;;;;;0.00;0.00;;;;;;;;;;5053699;28;20205;-65
2022/07/27 12:22:51;;;;;;;0.00;0.00;;;;;;;;;;5061929;28;20232;-64
2022/07/27 12:25:28;;;;;;;0.08;0.08;;;;;;;;;;5053409;28;20282;-65
2022/07/27 12:27:56;;;;;;;0.00;0.00;;;;;;;;;;5062743;28;20203;-65
2022/07/27 12:30:28;;;;;;;0.00;0.00;;;;;;;;;;5053308;28;20231;-64
2022/07/27 12:32:55;;;;;;;0.00;0.00;;;;;;;;;;5062772;28;20205;-64
2022/07/27 12:35:22;;;;;;;0.00;0.00;;;;;;;;;;5053068;28;20245;-64
2022/07/27 12:37:55;;;;;;;0.00;0.00;;;;;;;;;;5062293;28;20389;-64
2022/07/27 12:40:21;;;;;;;0.00;0.00;;;;;;;;;;5053233;28;20244;-64
2022/07/27 12:42:55;;;;;;;0.10;0.10;;;;;;;;;;5062550;28;20315;-66
2022/07/27 12:45:22;;;;;;;0.00;0.00;;;;;;;;;;5053356;28;20240;-64
2022/07/27 12:47:48;;;;;;;0.00;0.00;;;;;;;;;;5062636;28;20204;-64
2022/07/27 12:50:15;;;;;;;0.00;0.00;;;;;;;;;;5053612;28;20358;-64
2022/07/27 12:52:43;;;;;;;0.08;0.08;;;;;;;;;;5062507;28;20506;-64
2022/07/27 12:55:10;;;;;;;0.00;0.00;;;;;;;;;;5053384;28;20260;-64
2022/07/27 12:57:36;;;;;;;0.03;0.03;;;;;;;;;;5062942;28;20267;-64
2022/07/27 13:00:05;;;;;;;0.00;0.00;;;;;;;;;;5063770;28;20235;-64
2022/07/27 13:02:31;;;;;;;0.00;0.00;;;;;;;;;;5035253;28;20213;-64
2022/07/27 13:04:57;;;;;;;0.10;0.10;;;;;;;;;;5063244;28;20212;-64
2022/07/27 13:07:24;;;;;;;0.00;0.00;;;;;;;;;;5051804;28;20243;-64
2022/07/27 13:09:51;;;;;;;0.10;0.10;;;;;;;;;;5063126;28;20208;-64
2022/07/27 13:12:17;;;;;;;0.00;0.00;;;;;;;;;;5051765;28;20459;-65
2022/07/27 13:14:43;;;;;;;0.00;0.00;;;;;;;;;;5063350;28;20272;-64
2022/07/27 13:17:11;;;;;;;0.10;0.10;;;;;;;;;;5051575;28;20303;-64
2022/07/27 13:19:38;;;;;;;0.00;0.00;;;;;;;;;;5063040;28;20413;-63
2022/07/27 13:22:04;;;;;;;0.00;0.00;;;;;;;;;;5051522;28;20420;-64
2022/07/27 13:24:30;;;;;;;0.10;0.10;;;;;;;;;;5063149;28;20215;-64
2022/07/27 13:26:59;;;;;;;0.00;0.00;;;;;;;;;;5051429;28;20243;-64
2022/07/27 13:29:25;;;;;;;0.00;0.00;;;;;;;;;;5062647;28;20218;-64
2022/07/27 13:31:51;;;;;;;0.05;0.05;;;;;;;;;;5051736;28;20240;-63
2022/07/27 13:34:20;;;;;;;0.00;0.00;;;;;;;;;;5062296;28;20212;-64
2022/07/27 13:36:46;;;;;;;0.00;0.00;;;;;;;;;;5051650;28;20264;-64
2022/07/27 13:39:13;;;;;;;0.00;0.00;;;;;;;;;;5061980;28;20268;-64
2022/07/27 13:41:40;;;;;;;0.10;0.10;;;;;;;;;;5051421;28;20240;-65
2022/07/27 13:44:07;;;;;;;0.00;0.00;;;;;;;;;;5062136;28;20217;-65
2022/07/27 13:46:33;;;;;;;0.00;0.00;;;;;;;;;;5051333;28;20240;-64
2022/07/27 13:49:00;;;;;;;0.10;0.10;;;;;;;;;;5061683;28;20432;-64
2022/07/27 13:51:28;;;;;;;0.10;0.10;;;;;;;;;;5051461;28;20437;-63
2022/07/27 13:53:54;;;;;;;0.00;0.00;;;;;;;;;;5061891;28;20246;-64
2022/07/27 13:56:21;;;;;;;0.00;0.00;;;;;;;;;;5051524;28;20242;-63
2022/07/27 13:58:47;;;;;;;0.00;0.00;;;;;;;;;;5061851;28;20546;-63
2022/07/27 14:01:13;;;;;;;0.00;0.00;;;;;;;;;;5051349;28;20509;-65
2022/07/27 14:03:40;;;;;;;0.10;0.10;;;;;;;;;;5061908;28;20421;-64
2022/07/27 14:06:07;;;;;;;0.00;0.00;;;;;;;;;;5051430;28;20243;-64
2022/07/27 14:08:34;;;;;;;0.10;0.10;;;;;;;;;;5061602;28;20425;-64
2022/07/27 14:11:01;;;;;;;0.10;0.10;;;;;;;;;;5051370;28;20540;-65
2022/07/27 14:13:31;;;;;;;0.00;0.00;;;;;;;;;;5061444;28;20403;-64
2022/07/27 14:15:58;;;;;;;0.00;0.00;;;;;;;;;;5051539;28;20549;-63
2022/07/27 14:18:26;;;;;;;0.00;0.00;;;;;;;;;;5061342;28;20232;-63
2022/07/27 14:20:52;;;;;;;0.00;0.00;;;;;;;;;;5051556;28;20245;-64
2022/07/27 14:23:19;;;;;;;0.00;0.00;;;;;;;;;;5061129;28;20213;-63
2022/07/27 14:25:47;;;;;;;0.08;0.08;;;;;;;;;;5051501;28;20244;-64
2022/07/27 14:28:14;;;;;;;0.00;0.00;;;;;;;;;;5061516;28;20206;-62
2022/07/27 14:30:41;;;;;;;0.00;0.00;;;;;;;;;;5051486;28;20329;-63
2022/07/27 14:33:08;;;;;;;0.10;0.10;;;;;;;;;;5061075;28;20271;-64
2022/07/27 14:35:34;;;;;;;0.00;0.00;;;;;;;;;;5051504;28;20605;-63
2022/07/27 14:38:00;;;;;;;0.10;0.10;;;;;;;;;;5060893;28;20243;-65
2022/07/27 14:40:27;;;;;;;0.00;0.00;;;;;;;;;;5051559;28;20408;-64
2022/07/27 14:42:55;;;;;;;0.10;0.10;;;;;;;;;;5060767;28;20193;-65
2022/07/27 14:45:22;;;;;;;0.03;0.03;;;;;;;;;;5052803;28;20359;-64